Euro Snow — VQGH9 — position and weather

sailwx.info

Track history (hours):
 
Tides and Currents Weather Stations Pressure Air Temp Water Temp Dewpoint Dewpoint Depression Visibility Wind Speed Wind Dir Waves Ship Positions

Euro Snow

Last reported at 2015-May-28 06:28 UTC. Time now 2015-May-28 10:09 UTC.
Position N 41°47' W 009°06'.

Length 133 m; draft 7.6 m.

Type: Cargo ship. MMSI: 235613000.

Date/timePositionNaut miles runAvg speedWind from/ knotsBaromVisibWave heightAir tempDewpointWater temp
2015-May-28 06:28N 41°47' W 009°06'1415.5
2015-May-28 05:33N 41°34' W 008°59'1515.3
2015-May-28 04:33N 41°20' W 008°51'1111.3
2015-May-28 03:33N 41°11' W 008°42'0 0.1
2015-May-28 02:33N 41°11' W 008°42'0 0.0
2015-May-28 01:21N 41°11' W 008°42'0 0.0
2015-May-27 22:32N 41°11' W 008°42'0 0.0
2015-May-27 21:26N 41°11' W 008°42'0 0.0
2015-May-27 20:23N 41°11' W 008°42'0 0.0
2015-May-27 19:29N 41°11' W 008°42'4 1.0
2015-May-27 15:21N 41°08' W 008°45'112 7.1
2015-May-26 23:33N 39°25' W 009°43'1313.1
2015-May-26 22:33N 39°12' W 009°42'1312.8
2015-May-26 21:32N 38°59' W 009°42'1312.7
2015-May-26 20:33N 38°47' W 009°42'1010.5
2015-May-26 19:33N 38°38' W 009°34'1312.9
2015-May-26 18:33N 38°41' W 009°18'9 8.9
2015-May-26 17:31N 38°44' W 009°06'0 0.0
2015-May-26 16:31N 38°44' W 009°06'0 0.0
2015-May-26 15:33N 38°44' W 009°06'0 0.0
2015-May-26 14:32N 38°44' W 009°06'0 0.0
2015-May-26 13:32N 38°44' W 009°06'0 0.0
2015-May-26 12:29N 38°44' W 009°06'0 0.0
2015-May-26 11:27N 38°44' W 009°06'0 0.0
2015-May-26 10:33N 38°43' W 009°06'0 0.0
2015-May-26 09:31N 38°44' W 009°06'0 0.0
2015-May-26 08:33N 38°44' W 009°06'0 0.0
2015-May-26 07:33N 38°43' W 009°06'0 0.0
2015-May-26 06:33N 38°44' W 009°06'0 0.1
2015-May-26 05:33N 38°44' W 009°06'1010.2
2015-May-26 04:33N 38°40' W 009°19'1010.1
2015-May-26 03:33N 38°36' W 009°30'1211.9
2015-May-26 02:34N 38°42' W 009°43'1313.2
2015-May-26 01:33N 38°56' W 009°44'1313.4
2015-May-26 00:34N 39°09' W 009°45'1813.0
2015-May-25 23:13N 39°26' W 009°47'2213.2
2015-May-25 21:33N 39°48' W 009°48'1313.1
2015-May-25 20:33N 40°01' W 009°49'1713.2
2015-May-25 19:17N 40°18' W 009°52'1013.5
2015-May-25 18:33N 40°28' W 009°52'1413.7
2015-May-25 17:33N 40°41' W 009°53'1413.7
2015-May-25 16:33N 40°55' W 009°54'1413.9
2015-May-25 15:33N 41°09' W 009°56'23610.1
2015-May-24 16:15N 43°41' W 005°51'1013.4
2015-May-24 15:31N 43°35' W 005°40'2 0.5
2015-May-24 11:29N 43°37' W 005°41'2016.4
2015-May-24 10:18N 43°57' W 005°41'25216.8
2015-May-23 19:17N 48°09' W 005°55'26816.0
2015-May-23 02:30N 50°31' W 000°06'1615.9
2015-May-23 01:30N 50°35' E 000°18'1414.7
2015-May-23 00:33N 50°40' E 000°39'1515.2
2015-May-22 23:33N 50°48' E 000°59'1716.7
2015-May-22 22:33N 50°57' E 001°21'1818.4
2015-May-22 21:34N 51°11' E 001°40'1717.0
2015-May-22 20:33N 51°24' E 001°57'1615.6
2015-May-22 19:33N 51°36' E 002°14'1514.8
2015-May-22 18:33N 51°47' E 002°30'1414.4
2015-May-22 17:33N 51°57' E 002°46'1414.1
2015-May-22 16:33N 52°02' E 003°08'1514.9
2015-May-22 15:33N 52°03' E 003°32'1615.5
2015-May-22 14:33N 52°01' E 003°57'4 4.2
2015-May-22 13:31N 51°58' E 004°02'0 0.0
2015-May-22 12:31N 51°58' E 004°02'0 0.0
2015-May-22 11:31N 51°58' E 004°02'0 0.0
2015-May-22 10:33N 51°58' E 004°02'0 0.0
2015-May-22 09:32N 51°58' E 004°02'0 0.0
2015-May-22 08:33N 51°58' E 004°02'0 0.0
2015-May-22 07:30N 51°58' E 004°02'0 0.0
2015-May-22 06:34N 51°58' E 004°02'0 0.0
2015-May-22 05:31N 51°58' E 004°02'0 0.0
2015-May-22 04:32N 51°58' E 004°02'0 0.0
2015-May-22 03:33N 51°58' E 004°02'0 0.0
2015-May-22 02:32N 51°58' E 004°02'0 0.0
2015-May-22 01:31N 51°58' E 004°02'1 1.2
2015-May-22 00:34N 51°59' E 004°04'1212.3
2015-May-21 23:34N 52°06' E 003°47'1716.8
2015-May-21 22:34N 52°22' E 003°49'1615.7
2015-May-21 21:33N 52°38' E 003°54'1616.5
2015-May-21 20:34N 52°54' E 003°59'1514.8
2015-May-21 19:34N 53°05' E 004°16'1413.9
2015-May-21 18:33N 53°16' E 004°30'1414.4
2015-May-21 17:34N 53°30' E 004°36'1616.2
2015-May-21 16:33N 53°45' E 004°46'1716.3
2015-May-21 15:32N 54°01' E 004°54'2016.3
2015-May-21 14:19N 54°19' E 005°08'6416.0
2015-May-21 10:17N 55°13' E 006°08'1315.9
2015-May-21 09:28N 55°25' E 006°20'16015.6
2015-May-20 23:12N 57°29' E 009°23'2715.5
2015-May-20 21:27N 57°43' E 010°06'1415.3
2015-May-20 20:34N 57°48' E 010°30'1515.3
2015-May-20 19:34N 57°46' E 010°58'1716.6
2015-May-20 18:34N 57°40' E 011°28'1212.3
2015-May-20 17:33N 57°41' E 011°51'0 0.2
2015-May-20 16:32N 57°41' E 011°51'0 0.0
2015-May-20 15:32N 57°41' E 011°51'0 0.0
2015-May-20 14:33N 57°41' E 011°51'0 0.0
2015-May-20 13:33N 57°41' E 011°51'0 0.0
2015-May-20 12:33N 57°41' E 011°51'0 0.0
2015-May-20 11:30N 57°41' E 011°51'0 0.0
2015-May-20 10:33N 57°41' E 011°51'0 0.0
2015-May-20 09:33N 57°41' E 011°51'0 0.0
2015-May-20 08:33N 57°41' E 011°51'0 0.0
2015-May-20 07:32N 57°41' E 011°51'0 0.0
2015-May-20 06:32N 57°41' E 011°51'0 0.0
2015-May-20 05:33N 57°41' E 011°51'0 0.0
2015-May-20 04:32N 57°41' E 011°51'0 0.0
2015-May-20 03:32N 57°41' E 011°51'3 3.3
2015-May-20 02:34N 57°41' E 011°45'1413.6
2015-May-20 01:34N 57°27' E 011°40'1615.7
2015-May-20 00:34N 57°12' E 011°40'1615.7
2015-May-19 23:33N 56°56' E 011°47'1514.7
2015-May-19 22:33N 56°42' E 011°48'5215.8
2015-May-19 19:14N 56°03' E 010°44'1115.9
2015-May-19 18:34N 56°07' E 010°26'7 6.9
2015-May-19 17:33N 56°09' E 010°14'0 0.0
2015-May-19 16:33N 56°09' E 010°14'0 0.0
2015-May-19 15:32N 56°09' E 010°14'0 0.0
2015-May-19 14:31N 56°09' E 010°14'0 0.0
2015-May-19 13:28N 56°09' E 010°14'1 0.7
2015-May-19 12:32N 56°10' E 010°15'5510.3
2015-May-19 07:15N 57°01' E 010°50'1115.0
2015-May-19 06:30N 57°12' E 010°44'1415.1
2015-May-19 05:33N 57°26' E 010°43'1615.7
2015-May-19 04:33N 57°41' E 010°45'  
Track history (hours):
 
Tides and Currents Weather Stations Pressure Air Temp Water Temp Dewpoint Dewpoint Depression Visibility Wind Speed Wind Dir Waves Ship Positions

Euro Snow

Last reported at 2015-May-28 06:28 UTC. Time now 2015-May-28 10:09 UTC.
Position N 41°47' W 009°06'.

Length 133 m; draft 7.6 m.

Type: Cargo ship. MMSI: 235613000.

Date/timePositionNaut miles runAvg speedWind from/ knotsBaromVisibWave heightAir tempDewpointWater temp
2015-May-28 06:28N 41°47' W 009°06'1415.5
2015-May-28 05:33N 41°34' W 008°59'1515.3
2015-May-28 04:33N 41°20' W 008°51'1111.3
2015-May-28 03:33N 41°11' W 008°42'0 0.1
2015-May-28 02:33N 41°11' W 008°42'0 0.0
2015-May-28 01:21N 41°11' W 008°42'0 0.0
2015-May-27 22:32N 41°11' W 008°42'0 0.0
2015-May-27 21:26N 41°11' W 008°42'0 0.0
2015-May-27 20:23N 41°11' W 008°42'0 0.0
2015-May-27 19:29N 41°11' W 008°42'4 1.0
2015-May-27 15:21N 41°08' W 008°45'112 7.1
2015-May-26 23:33N 39°25' W 009°43'1313.1
2015-May-26 22:33N 39°12' W 009°42'1312.8
2015-May-26 21:32N 38°59' W 009°42'1312.7
2015-May-26 20:33N 38°47' W 009°42'1010.5
2015-May-26 19:33N 38°38' W 009°34'1312.9
2015-May-26 18:33N 38°41' W 009°18'9 8.9
2015-May-26 17:31N 38°44' W 009°06'0 0.0
2015-May-26 16:31N 38°44' W 009°06'0 0.0
2015-May-26 15:33N 38°44' W 009°06'0 0.0
2015-May-26 14:32N 38°44' W 009°06'0 0.0
2015-May-26 13:32N 38°44' W 009°06'0 0.0
2015-May-26 12:29N 38°44' W 009°06'0 0.0
2015-May-26 11:27N 38°44' W 009°06'0 0.0
2015-May-26 10:33N 38°43' W 009°06'0 0.0
2015-May-26 09:31N 38°44' W 009°06'0 0.0
2015-May-26 08:33N 38°44' W 009°06'0 0.0
2015-May-26 07:33N 38°43' W 009°06'0 0.0
2015-May-26 06:33N 38°44' W 009°06'0 0.1
2015-May-26 05:33N 38°44' W 009°06'1010.2
2015-May-26 04:33N 38°40' W 009°19'1010.1
2015-May-26 03:33N 38°36' W 009°30'1211.9
2015-May-26 02:34N 38°42' W 009°43'1313.2
2015-May-26 01:33N 38°56' W 009°44'1313.4
2015-May-26 00:34N 39°09' W 009°45'1813.0
2015-May-25 23:13N 39°26' W 009°47'2213.2
2015-May-25 21:33N 39°48' W 009°48'1313.1
2015-May-25 20:33N 40°01' W 009°49'1713.2
2015-May-25 19:17N 40°18' W 009°52'1013.5
2015-May-25 18:33N 40°28' W 009°52'1413.7
2015-May-25 17:33N 40°41' W 009°53'1413.7
2015-May-25 16:33N 40°55' W 009°54'1413.9
2015-May-25 15:33N 41°09' W 009°56'23610.1
2015-May-24 16:15N 43°41' W 005°51'1013.4
2015-May-24 15:31N 43°35' W 005°40'2 0.5
2015-May-24 11:29N 43°37' W 005°41'2016.4
2015-May-24 10:18N 43°57' W 005°41'25216.8
2015-May-23 19:17N 48°09' W 005°55'26816.0
2015-May-23 02:30N 50°31' W 000°06'1615.9
2015-May-23 01:30N 50°35' E 000°18'1414.7
2015-May-23 00:33N 50°40' E 000°39'1515.2
2015-May-22 23:33N 50°48' E 000°59'1716.7
2015-May-22 22:33N 50°57' E 001°21'1818.4
2015-May-22 21:34N 51°11' E 001°40'1717.0
2015-May-22 20:33N 51°24' E 001°57'1615.6
2015-May-22 19:33N 51°36' E 002°14'1514.8
2015-May-22 18:33N 51°47' E 002°30'1414.4
2015-May-22 17:33N 51°57' E 002°46'1414.1
2015-May-22 16:33N 52°02' E 003°08'1514.9
2015-May-22 15:33N 52°03' E 003°32'1615.5
2015-May-22 14:33N 52°01' E 003°57'4 4.2
2015-May-22 13:31N 51°58' E 004°02'0 0.0
2015-May-22 12:31N 51°58' E 004°02'0 0.0
2015-May-22 11:31N 51°58' E 004°02'0 0.0
2015-May-22 10:33N 51°58' E 004°02'0 0.0
2015-May-22 09:32N 51°58' E 004°02'0 0.0
2015-May-22 08:33N 51°58' E 004°02'0 0.0
2015-May-22 07:30N 51°58' E 004°02'0 0.0
2015-May-22 06:34N 51°58' E 004°02'0 0.0
2015-May-22 05:31N 51°58' E 004°02'0 0.0
2015-May-22 04:32N 51°58' E 004°02'0 0.0
2015-May-22 03:33N 51°58' E 004°02'0 0.0
2015-May-22 02:32N 51°58' E 004°02'0 0.0
2015-May-22 01:31N 51°58' E 004°02'1 1.2
2015-May-22 00:34N 51°59' E 004°04'1212.3
2015-May-21 23:34N 52°06' E 003°47'1716.8
2015-May-21 22:34N 52°22' E 003°49'1615.7
2015-May-21 21:33N 52°38' E 003°54'1616.5
2015-May-21 20:34N 52°54' E 003°59'1514.8
2015-May-21 19:34N 53°05' E 004°16'1413.9
2015-May-21 18:33N 53°16' E 004°30'1414.4
2015-May-21 17:34N 53°30' E 004°36'1616.2
2015-May-21 16:33N 53°45' E 004°46'1716.3
2015-May-21 15:32N 54°01' E 004°54'2016.3
2015-May-21 14:19N 54°19' E 005°08'6416.0
2015-May-21 10:17N 55°13' E 006°08'1315.9
2015-May-21 09:28N 55°25' E 006°20'16015.6
2015-May-20 23:12N 57°29' E 009°23'2715.5
2015-May-20 21:27N 57°43' E 010°06'1415.3
2015-May-20 20:34N 57°48' E 010°30'1515.3
2015-May-20 19:34N 57°46' E 010°58'1716.6
2015-May-20 18:34N 57°40' E 011°28'1212.3
2015-May-20 17:33N 57°41' E 011°51'0 0.2
2015-May-20 16:32N 57°41' E 011°51'0 0.0
2015-May-20 15:32N 57°41' E 011°51'0 0.0
2015-May-20 14:33N 57°41' E 011°51'0 0.0
2015-May-20 13:33N 57°41' E 011°51'0 0.0
2015-May-20 12:33N 57°41' E 011°51'0 0.0
2015-May-20 11:30N 57°41' E 011°51'0 0.0
2015-May-20 10:33N 57°41' E 011°51'0 0.0
2015-May-20 09:33N 57°41' E 011°51'0 0.0
2015-May-20 08:33N 57°41' E 011°51'0 0.0
2015-May-20 07:32N 57°41' E 011°51'0 0.0
2015-May-20 06:32N 57°41' E 011°51'0 0.0
2015-May-20 05:33N 57°41' E 011°51'0 0.0
2015-May-20 04:32N 57°41' E 011°51'0 0.0
2015-May-20 03:32N 57°41' E 011°51'3 3.3
2015-May-20 02:34N 57°41' E 011°45'1413.6
2015-May-20 01:34N 57°27' E 011°40'1615.7
2015-May-20 00:34N 57°12' E 011°40'1615.7
2015-May-19 23:33N 56°56' E 011°47'1514.7
2015-May-19 22:33N 56°42' E 011°48'5215.8
2015-May-19 19:14N 56°03' E 010°44'1115.9
2015-May-19 18:34N 56°07' E 010°26'7 6.9
2015-May-19 17:33N 56°09' E 010°14'0 0.0
2015-May-19 16:33N 56°09' E 010°14'0 0.0
2015-May-19 15:32N 56°09' E 010°14'0 0.0
2015-May-19 14:31N 56°09' E 010°14'0 0.0
2015-May-19 13:28N 56°09' E 010°14'1 0.7
2015-May-19 12:32N 56°10' E 010°15'5510.3
2015-May-19 07:15N 57°01' E 010°50'1115.0
2015-May-19 06:30N 57°12' E 010°44'1415.1
2015-May-19 05:33N 57°26' E 010°43'1615.7
2015-May-19 04:33N 57°41' E 010°45'  

Dump ship's entire track history